createdAt,value
2019-04-01T00:01:21.784Z,56.60
2019-04-01T00:03:52.657Z,56.60
2019-04-01T00:06:22.378Z,56.70
2019-04-01T00:08:52.073Z,56.80
2019-04-01T00:11:21.797Z,56.80
2019-04-01T00:13:51.574Z,57.00
2019-04-01T00:16:21.455Z,57.00
2019-04-01T00:19:02.308Z,57.00
2019-04-01T00:21:22.710Z,57.00
2019-04-01T00:23:52.481Z,57.20
2019-04-01T00:26:22.285Z,57.30
2019-04-01T00:28:51.973Z,57.10
2019-04-01T00:31:22.849Z,57.30
2019-04-01T00:33:52.619Z,57.40
2019-04-01T00:36:22.487Z,57.40
2019-04-01T00:38:52.364Z,57.40
2019-04-01T00:41:22.196Z,57.40
2019-04-01T00:43:52.992Z,57.40
2019-04-01T00:46:23.229Z,57.30
2019-04-01T00:48:53.025Z,57.20
2019-04-01T00:51:22.913Z,57.50
2019-04-01T00:53:52.667Z,57.30
2019-04-01T00:56:22.497Z,57.40
2019-04-01T00:58:52.375Z,57.60
2019-04-01T01:01:22.152Z,57.40
2019-04-01T01:03:51.882Z,57.40
2019-04-01T01:06:22.664Z,57.60
2019-04-01T01:08:52.389Z,57.60
2019-04-01T01:11:22.105Z,57.70
2019-04-01T01:13:52.065Z,57.60
2019-04-01T01:16:21.855Z,57.60
2019-04-01T01:18:51.648Z,57.70
2019-04-01T01:21:21.501Z,57.60
2019-04-01T01:23:51.310Z,57.60
2019-04-01T01:26:20.972Z,57.70
2019-04-01T01:28:50.748Z,57.70
2019-04-01T01:31:20.399Z,57.90
2019-04-01T01:33:50.056Z,57.80
2019-04-01T01:36:19.712Z,57.90
2019-04-01T01:38:49.382Z,57.80
2019-04-01T01:41:19.040Z,57.90
2019-04-01T01:43:49.113Z,57.90
2019-04-01T01:46:19.986Z,58.10
2019-04-01T01:48:52.232Z,58.10
2019-04-01T01:51:21.959Z,58.10
2019-04-01T01:53:51.625Z,58.00
2019-04-01T01:56:21.267Z,58.10
2019-04-01T01:58:50.944Z,58.20
2019-04-01T02:01:20.589Z,58.30
2019-04-01T02:03:50.269Z,58.40
2019-04-01T02:06:19.937Z,58.40
2019-04-01T02:08:49.600Z,58.40
2019-04-01T02:11:19.263Z,58.40
2019-04-01T02:13:48.924Z,58.40
2019-04-01T02:16:18.564Z,58.60
2019-04-01T02:18:48.553Z,58.50
2019-04-01T02:21:18.205Z,58.70
2019-04-01T02:23:47.981Z,58.70
2019-04-01T02:26:18.489Z,58.70
2019-04-01T02:28:48.144Z,58.90
2019-04-01T02:31:17.806Z,58.90
2019-04-01T02:33:47.458Z,58.90
2019-04-01T02:36:17.119Z,58.90
2019-04-01T02:38:46.773Z,58.80
2019-04-01T02:41:16.452Z,59.10
2019-04-01T02:43:46.097Z,59.00
2019-04-01T02:46:15.937Z,58.90
2019-04-01T02:48:45.732Z,59.10
2019-04-01T02:51:15.645Z,59.00
2019-04-01T02:53:45.367Z,59.00
2019-04-01T02:56:15.185Z,59.00
2019-04-01T02:58:44.842Z,59.30
2019-04-01T03:01:14.655Z,59.40
2019-04-01T03:03:44.304Z,59.40
2019-04-01T03:06:17.028Z,59.30
2019-04-01T03:08:46.389Z,59.60
2019-04-01T03:11:16.083Z,59.50
2019-04-01T03:13:45.738Z,59.40
2019-04-01T03:16:15.510Z,59.60
2019-04-01T03:18:45.225Z,59.60
2019-04-01T03:21:14.900Z,60.00
2019-04-01T03:23:44.553Z,59.90
2019-04-01T03:26:14.321Z,59.80
2019-04-01T03:28:43.997Z,59.80
2019-04-01T03:31:13.685Z,59.80
2019-04-01T03:33:43.404Z,59.90
2019-04-01T03:36:13.055Z,60.00
2019-04-01T03:38:42.710Z,60.00
2019-04-01T03:41:12.457Z,60.00
2019-04-01T03:43:42.135Z,60.00
2019-04-01T03:46:11.799Z,60.30
2019-04-01T03:48:41.437Z,60.20
2019-04-01T03:51:11.092Z,60.30
2019-04-01T03:53:40.738Z,60.10
2019-04-01T03:56:10.411Z,60.30
2019-04-01T03:58:40.065Z,60.20
2019-04-01T04:01:09.889Z,60.40
2019-04-01T04:03:39.614Z,60.50
2019-04-01T04:06:09.268Z,60.40
2019-04-01T04:08:38.925Z,60.40
2019-04-01T04:11:08.665Z,60.40
2019-04-01T04:13:38.312Z,60.60
2019-04-01T04:16:07.991Z,60.60
2019-04-01T04:18:37.676Z,60.70
2019-04-01T04:21:07.342Z,60.70
2019-04-01T04:23:37.005Z,60.70
2019-04-01T04:26:06.670Z,60.70
2019-04-01T04:28:36.326Z,60.80
2019-04-01T04:31:05.992Z,60.70
2019-04-01T04:33:35.676Z,60.90
2019-04-01T04:36:05.313Z,60.90
2019-04-01T04:38:35.060Z,60.80
2019-04-01T04:41:04.795Z,60.90
2019-04-01T04:43:34.552Z,60.90
2019-04-01T04:46:04.286Z,60.80
2019-04-01T04:48:34.058Z,61.00
2019-04-01T04:51:03.869Z,61.00
2019-04-01T04:53:33.607Z,61.60
2019-04-01T04:56:04.301Z,61.10
2019-04-01T04:58:34.044Z,61.10
2019-04-01T05:01:03.808Z,61.30
2019-04-01T05:03:33.517Z,61.20
2019-04-01T05:06:03.254Z,61.30
2019-04-01T05:08:32.936Z,61.40
2019-04-01T05:11:02.657Z,61.50
2019-04-01T05:13:32.385Z,61.40
2019-04-01T05:16:02.468Z,61.40
2019-04-01T05:18:33.401Z,61.60
2019-04-01T05:21:03.636Z,61.60
2019-04-01T05:23:33.559Z,61.50
2019-04-01T05:26:03.858Z,61.60
2019-04-01T05:28:36.236Z,61.90
2019-04-01T05:31:07.715Z,61.70
2019-04-01T05:33:39.401Z,61.80
2019-04-01T05:36:10.356Z,62.00
2019-04-01T05:38:40.185Z,62.30
2019-04-01T05:41:10.420Z,61.80
2019-04-01T05:43:41.272Z,62.00
2019-04-01T05:46:11.088Z,61.90
2019-04-01T05:48:40.830Z,61.90
2019-04-01T05:51:10.659Z,61.90
2019-04-01T05:53:40.415Z,61.80
2019-04-01T05:56:10.129Z,61.80
2019-04-01T05:58:39.886Z,61.80
2019-04-01T06:01:13.923Z,61.80
2019-04-01T06:03:43.730Z,61.70
2019-04-01T06:06:13.525Z,61.80
2019-04-01T06:08:43.264Z,61.80
2019-04-01T06:11:13.065Z,61.90
2019-04-01T06:13:42.815Z,61.70
2019-04-01T06:16:12.474Z,61.70
2019-04-01T06:18:42.295Z,61.60
2019-04-01T06:21:11.964Z,61.60
2019-04-01T06:23:41.909Z,61.30
2019-04-01T06:26:11.693Z,61.40
2019-04-01T06:28:41.939Z,61.40
2019-04-01T06:31:11.754Z,61.20
2019-04-01T06:33:41.748Z,61.20
2019-04-01T06:36:11.767Z,61.00
2019-04-01T06:38:41.658Z,60.80
2019-04-01T06:41:11.398Z,61.10
2019-04-01T06:43:41.125Z,61.10
2019-04-01T06:46:10.796Z,61.10
2019-04-01T06:48:40.519Z,60.90
2019-04-01T06:51:10.257Z,60.90
2019-04-01T06:53:39.919Z,59.90
2019-04-01T06:56:09.665Z,60.30
2019-04-01T06:58:39.479Z,59.20
2019-04-01T07:01:09.245Z,58.40
2019-04-01T07:03:39.044Z,58.00
2019-04-01T07:06:08.869Z,56.70
2019-04-01T07:08:38.602Z,55.90
2019-04-01T07:11:08.357Z,55.30
2019-04-01T07:13:39.983Z,54.20
2019-04-01T07:16:15.933Z,53.30
2019-04-01T07:18:41.059Z,52.40
2019-04-01T07:21:10.909Z,51.30
2019-04-01T07:23:40.740Z,49.90
2019-04-01T07:26:10.568Z,48.90
2019-04-01T07:28:40.257Z,47.50
2019-04-01T07:31:09.996Z,46.80
2019-04-01T07:33:39.656Z,46.30
2019-04-01T07:36:09.690Z,45.50
2019-04-01T07:38:39.501Z,44.10
2019-04-01T07:41:09.320Z,42.50
2019-04-01T07:43:39.060Z,41.70
2019-04-01T07:46:08.941Z,41.00
2019-04-01T07:48:38.899Z,39.30
2019-04-01T07:51:08.887Z,39.10
2019-04-01T07:53:38.724Z,38.50
2019-04-01T07:56:08.592Z,37.50
2019-04-01T07:58:38.457Z,36.60
2019-04-01T08:01:08.374Z,36.10
2019-04-01T08:03:41.664Z,35.70
2019-04-01T08:06:09.852Z,35.60
2019-04-01T08:08:39.712Z,35.20
2019-04-01T08:11:09.628Z,34.80
2019-04-01T08:13:39.460Z,32.50
2019-04-01T08:16:09.338Z,33.40
2019-04-01T08:18:39.200Z,32.00
2019-04-01T08:21:09.189Z,32.80
2019-04-01T08:23:39.975Z,31.90
2019-04-01T08:26:09.970Z,32.30
2019-04-01T08:28:39.754Z,31.00
2019-04-01T08:31:13.142Z,31.60
2019-04-01T08:33:41.643Z,30.70
2019-04-01T08:36:11.660Z,30.10
2019-04-01T08:38:41.532Z,29.50
2019-04-01T08:41:11.331Z,30.00
2019-04-01T08:43:41.523Z,29.80
2019-04-01T08:46:11.397Z,29.20
2019-04-01T08:48:41.276Z,29.70
2019-04-01T08:51:11.156Z,29.50
2019-04-01T08:53:41.047Z,29.30
2019-04-01T08:56:10.915Z,28.20
2019-04-01T08:58:40.787Z,28.10
2019-04-01T09:01:10.637Z,28.00
2019-04-01T09:03:40.439Z,28.20
2019-04-01T09:06:10.425Z,28.80
2019-04-01T09:08:42.070Z,28.60
2019-04-01T09:11:12.143Z,27.90
2019-04-01T09:13:42.033Z,27.60
2019-04-01T09:16:11.997Z,27.80
2019-04-01T09:18:41.730Z,26.80
2019-04-01T09:21:11.702Z,27.30
2019-04-01T09:23:41.531Z,27.50
2019-04-01T09:26:11.316Z,27.30
2019-04-01T09:28:41.115Z,27.90
2019-04-01T09:31:10.917Z,27.50
2019-04-01T09:33:40.672Z,27.40
2019-04-01T09:36:10.550Z,27.10
2019-04-01T09:38:40.274Z,26.50
2019-04-01T09:41:13.129Z,26.60
2019-04-01T09:43:41.593Z,26.20
2019-04-01T09:46:11.838Z,26.00
2019-04-01T09:48:41.750Z,26.40
2019-04-01T09:51:11.604Z,26.10
2019-04-01T09:53:41.421Z,26.00
2019-04-01T09:56:11.255Z,25.60
2019-04-01T09:58:41.190Z,25.60
2019-04-01T10:01:10.977Z,25.50
2019-04-01T10:03:40.845Z,25.40
2019-04-01T10:06:10.753Z,25.30
2019-04-01T10:08:42.586Z,25.80
2019-04-01T10:11:12.889Z,25.90
2019-04-01T10:13:42.997Z,26.20
2019-04-01T10:16:12.858Z,25.70
2019-04-01T10:18:43.053Z,25.10
2019-04-01T10:21:12.851Z,25.40
2019-04-01T10:23:42.719Z,25.10
2019-04-01T10:26:12.619Z,25.90
2019-04-01T10:28:42.336Z,25.50
2019-04-01T10:31:12.212Z,25.30
2019-04-01T10:33:42.046Z,25.40
2019-04-01T10:36:11.912Z,25.40
2019-04-01T10:38:41.801Z,24.90
2019-04-01T10:41:11.529Z,25.00
2019-04-01T10:43:41.332Z,25.00
2019-04-01T10:46:12.445Z,25.00
2019-04-01T10:48:42.423Z,24.90
2019-04-01T10:51:12.457Z,25.40
2019-04-01T10:53:42.305Z,25.90
2019-04-01T10:56:12.227Z,26.40
2019-04-01T10:58:42.210Z,26.80
2019-04-01T11:01:12.409Z,27.70
2019-04-01T11:03:42.276Z,28.50
2019-04-01T11:06:12.334Z,29.10
2019-04-01T11:08:42.315Z,28.40
2019-04-01T11:11:12.755Z,29.20
2019-04-01T11:13:42.616Z,29.30
2019-04-01T11:16:12.415Z,29.50
2019-04-01T11:18:42.197Z,29.90
2019-04-01T11:21:12.094Z,30.10
2019-04-01T11:23:41.868Z,30.20
2019-04-01T11:26:11.672Z,30.40
2019-04-01T11:28:41.394Z,30.70
2019-04-01T11:31:11.262Z,31.20
2019-04-01T11:33:41.126Z,31.50
2019-04-01T11:36:11.001Z,32.10
2019-04-01T11:38:40.837Z,33.50
2019-04-01T11:41:10.902Z,32.80
2019-04-01T11:43:40.742Z,32.90
2019-04-01T11:46:12.572Z,33.20
2019-04-01T11:48:43.254Z,33.10
2019-04-01T11:51:13.335Z,33.30
2019-04-01T11:53:43.609Z,33.20
2019-04-01T11:56:13.456Z,33.20
2019-04-01T11:58:43.245Z,34.30
2019-04-01T12:01:13.065Z,33.80
2019-04-01T12:03:44.098Z,33.70
2019-04-01T12:06:14.010Z,34.20
2019-04-01T12:08:43.761Z,34.30
2019-04-01T12:11:13.632Z,33.80
2019-04-01T12:13:43.482Z,33.80
2019-04-01T12:16:13.860Z,34.20
2019-04-01T12:18:44.677Z,34.10
2019-04-01T12:21:14.665Z,34.70
2019-04-01T12:23:44.520Z,34.60
2019-04-01T12:26:15.830Z,35.60
2019-04-01T12:28:45.900Z,35.50
2019-04-01T12:31:15.700Z,34.90
2019-04-01T12:33:45.568Z,35.10
2019-04-01T12:36:15.541Z,35.00
2019-04-01T12:38:45.400Z,35.20
2019-04-01T12:41:15.380Z,35.40
2019-04-01T12:43:45.322Z,35.10
2019-04-01T12:46:15.285Z,34.80
2019-04-01T12:48:45.161Z,35.30
2019-04-01T12:51:14.956Z,34.80
2019-04-01T12:53:45.202Z,35.50
2019-04-01T12:56:16.959Z,35.00
2019-04-01T12:58:46.693Z,35.30
2019-04-01T13:01:16.504Z,35.80
2019-04-01T13:03:46.295Z,35.50
2019-04-01T13:06:16.081Z,35.30
2019-04-01T13:08:45.872Z,35.30
2019-04-01T13:11:15.591Z,36.00
2019-04-01T13:13:48.655Z,35.10
2019-04-01T13:16:17.022Z,36.00
2019-04-01T13:18:47.410Z,35.60
2019-04-01T13:21:17.435Z,35.80
2019-04-01T13:23:47.226Z,35.50
2019-04-01T13:26:17.035Z,35.60
2019-04-01T13:28:46.847Z,36.40
2019-04-01T13:31:16.631Z,36.10
2019-04-01T13:33:46.361Z,36.20
2019-04-01T13:36:16.236Z,36.40
2019-04-01T13:38:46.041Z,36.40
2019-04-01T13:41:16.810Z,35.80
2019-04-01T13:43:47.654Z,35.90
2019-04-01T13:46:17.486Z,35.60
2019-04-01T13:48:57.630Z,35.90
2019-04-01T13:51:19.732Z,35.80
2019-04-01T13:53:49.448Z,36.20
2019-04-01T13:56:19.530Z,36.60
2019-04-01T13:58:49.324Z,36.60
2019-04-01T14:01:19.134Z,36.40
2019-04-01T14:03:48.908Z,36.40
2019-04-01T14:06:18.715Z,36.30
2019-04-01T14:08:48.445Z,36.30
2019-04-01T14:11:18.164Z,36.30
2019-04-01T14:13:47.989Z,36.70
2019-04-01T14:16:17.854Z,36.40
2019-04-01T14:18:47.575Z,36.70
2019-04-01T14:21:20.646Z,36.60
2019-04-01T14:23:48.717Z,36.60
2019-04-01T14:26:18.521Z,36.80
2019-04-01T14:28:48.325Z,36.50
2019-04-01T14:31:19.396Z,36.50
2019-04-01T14:33:49.413Z,36.70
2019-04-01T14:36:19.206Z,36.90
2019-04-01T14:38:49.038Z,37.10
2019-04-01T14:41:18.838Z,37.00
2019-04-01T14:43:48.635Z,37.00
2019-04-01T14:46:18.516Z,37.00
2019-04-01T14:48:48.228Z,36.80
2019-04-01T14:51:18.109Z,36.10
2019-04-01T14:53:47.903Z,36.70
2019-04-01T14:56:17.642Z,37.00
2019-04-01T14:58:47.498Z,36.30
2019-04-01T15:01:17.336Z,36.30
2019-04-01T15:03:47.205Z,36.70
2019-04-01T15:06:17.153Z,36.90
2019-04-01T15:08:48.120Z,36.00
2019-04-01T15:11:18.209Z,35.90
2019-04-01T15:13:47.993Z,36.00
2019-04-01T15:16:17.864Z,35.80
2019-04-01T15:18:47.585Z,35.70
2019-04-01T15:21:17.486Z,36.00
2019-04-01T15:23:47.269Z,36.00
2019-04-01T15:26:16.992Z,35.80
2019-04-01T15:28:46.862Z,35.20
2019-04-01T15:31:16.680Z,35.00
2019-04-01T15:33:46.393Z,34.80
2019-04-01T15:36:16.192Z,35.20
2019-04-01T15:38:45.910Z,34.80
2019-04-01T15:41:16.222Z,35.00
2019-04-01T15:43:47.276Z,35.00
2019-04-01T15:46:17.074Z,34.80
2019-04-01T15:48:46.794Z,34.90
2019-04-01T15:51:16.590Z,35.10
2019-04-01T15:53:46.377Z,34.90
2019-04-01T15:56:16.173Z,35.00
2019-04-01T15:58:45.954Z,34.80
2019-04-01T16:01:15.835Z,34.80
2019-04-01T16:03:45.613Z,34.90
2019-04-01T16:06:15.417Z,35.10
2019-04-01T16:08:45.222Z,35.30
2019-04-01T16:11:15.027Z,35.20
2019-04-01T16:13:44.866Z,35.10
2019-04-01T16:16:14.908Z,35.00
2019-04-01T16:18:44.691Z,34.90
2019-04-01T16:21:14.513Z,35.00
2019-04-01T16:23:44.381Z,35.10
2019-04-01T16:26:14.267Z,35.10
2019-04-01T16:28:44.055Z,35.30
2019-04-01T16:31:13.848Z,35.60
2019-04-01T16:33:43.569Z,35.50
2019-04-01T16:36:13.352Z,36.20
2019-04-01T16:38:43.136Z,35.90
2019-04-01T16:41:12.939Z,36.20
2019-04-01T16:43:42.734Z,36.20
2019-04-01T16:46:12.657Z,36.20
2019-04-01T16:48:42.565Z,36.20
2019-04-01T16:51:12.475Z,36.40
2019-04-01T16:53:44.319Z,36.20
2019-04-01T16:56:13.764Z,36.10
2019-04-01T16:58:44.184Z,36.20
2019-04-01T17:01:14.135Z,36.20
2019-04-01T17:03:44.013Z,37.00
2019-04-01T17:06:13.826Z,36.10
2019-04-01T17:08:43.722Z,36.30
2019-04-01T17:11:13.629Z,36.30
2019-04-01T17:13:43.763Z,36.10
2019-04-01T17:16:13.737Z,36.30
2019-04-01T17:18:43.461Z,36.70
2019-04-01T17:21:13.310Z,36.60
2019-04-01T17:23:43.211Z,36.50
2019-04-01T17:26:13.106Z,36.60
2019-04-01T17:28:42.989Z,36.70
2019-04-01T17:31:12.856Z,36.80
2019-04-01T17:33:42.728Z,37.00
2019-04-01T17:36:15.825Z,37.10
2019-04-01T17:38:47.982Z,37.20
2019-04-01T17:41:16.350Z,37.30
2019-04-01T17:43:47.052Z,37.50
2019-04-01T17:46:16.903Z,37.60
2019-04-01T17:48:46.622Z,37.60
2019-04-01T17:51:16.493Z,37.80
2019-04-01T17:53:46.208Z,37.90
2019-04-01T17:56:17.919Z,38.10
2019-04-01T17:58:48.465Z,38.30
2019-04-01T18:01:18.226Z,38.50
2019-04-01T18:03:48.312Z,38.50
2019-04-01T18:06:18.369Z,38.60
2019-04-01T18:08:48.109Z,38.90
2019-04-01T18:11:17.842Z,38.90
2019-04-01T18:13:47.746Z,39.10
2019-04-01T18:16:17.929Z,39.20
2019-04-01T18:18:48.531Z,39.30
2019-04-01T18:21:18.433Z,39.40
2019-04-01T18:23:48.233Z,39.50
2019-04-01T18:26:18.272Z,39.60
2019-04-01T18:28:48.248Z,39.70
2019-04-01T18:31:18.051Z,39.80
2019-04-01T18:33:56.104Z,39.90
2019-04-01T18:36:19.397Z,40.00
2019-04-01T18:38:49.133Z,40.20
2019-04-01T18:41:19.004Z,40.80
2019-04-01T18:43:48.745Z,40.90
2019-04-01T18:46:21.041Z,40.50
2019-04-01T18:48:49.963Z,40.50
2019-04-01T18:51:20.445Z,40.60
2019-04-01T18:53:50.520Z,40.60
2019-04-01T18:56:20.308Z,40.90
2019-04-01T18:58:50.161Z,40.90
2019-04-01T19:01:20.085Z,41.00
2019-04-01T19:03:49.793Z,41.00
2019-04-01T19:06:19.595Z,41.20
2019-04-01T19:08:50.430Z,41.20
2019-04-01T19:11:20.328Z,41.40
2019-04-01T19:13:50.183Z,41.50
2019-04-01T19:16:22.925Z,41.60
2019-04-01T19:18:51.401Z,41.70
2019-04-01T19:21:21.420Z,41.70
2019-04-01T19:23:51.215Z,41.70
2019-04-01T19:26:21.029Z,42.60
2019-04-01T19:28:50.826Z,42.00
2019-04-01T19:31:20.699Z,42.00
2019-04-01T19:33:50.481Z,42.10
2019-04-01T19:36:20.280Z,42.20
2019-04-01T19:38:51.039Z,42.50
2019-04-01T19:41:20.912Z,42.30
2019-04-01T19:43:51.301Z,42.50
2019-04-01T19:46:21.460Z,42.60
2019-04-01T19:48:51.260Z,42.70
2019-04-01T19:51:21.059Z,43.50
2019-04-01T19:53:50.778Z,42.90
2019-04-01T19:56:20.591Z,43.10
2019-04-01T19:58:50.449Z,43.20
2019-04-01T20:01:20.196Z,43.30
2019-04-01T20:03:49.984Z,43.50
2019-04-01T20:06:20.850Z,43.60
2019-04-01T20:08:50.650Z,43.80
2019-04-01T20:11:20.521Z,43.80
2019-04-01T20:13:50.312Z,43.80
2019-04-01T20:16:20.533Z,43.80
2019-04-01T20:18:51.870Z,44.00
2019-04-01T20:21:21.935Z,43.90
2019-04-01T20:23:54.765Z,43.90
2019-04-01T20:26:23.234Z,44.00
2019-04-01T20:28:53.021Z,44.10
2019-04-01T20:31:23.062Z,45.00
2019-04-01T20:33:52.962Z,44.30
2019-04-01T20:36:28.840Z,44.50
2019-04-01T20:38:54.247Z,44.60
2019-04-01T20:41:24.291Z,44.50
2019-04-01T20:43:54.207Z,44.60
2019-04-01T20:46:24.010Z,44.70
2019-04-01T20:48:53.910Z,44.80
2019-04-01T20:51:23.798Z,44.90
2019-04-01T20:53:53.605Z,44.90
2019-04-01T20:56:23.349Z,45.00
2019-04-01T20:58:55.785Z,45.10
2019-04-01T21:01:24.774Z,45.20
2019-04-01T21:03:54.573Z,45.20
2019-04-01T21:06:24.374Z,46.00
2019-04-01T21:08:54.254Z,45.40
2019-04-01T21:11:24.050Z,45.40
2019-04-01T21:13:53.832Z,45.70
2019-04-01T21:16:23.684Z,45.60
2019-04-01T21:18:54.455Z,45.70
2019-04-01T21:21:25.317Z,45.70
2019-04-01T21:23:56.100Z,45.80
2019-04-01T21:26:27.051Z,46.00
2019-04-01T21:28:56.916Z,46.00
2019-04-01T21:31:26.708Z,46.00
2019-04-01T21:33:56.437Z,46.40
2019-04-01T21:36:26.237Z,46.30
2019-04-01T21:38:57.563Z,46.30
2019-04-01T21:41:27.357Z,46.40
2019-04-01T21:43:57.146Z,46.50
2019-04-01T21:46:26.857Z,46.70
2019-04-01T21:48:56.745Z,46.70
2019-04-01T21:51:26.522Z,46.70
2019-04-01T21:53:56.266Z,46.70
2019-04-01T21:56:26.061Z,46.80
2019-04-01T21:58:55.843Z,46.90
2019-04-01T22:01:25.900Z,46.90
2019-04-01T22:03:55.769Z,47.00
2019-04-01T22:06:25.648Z,47.10
2019-04-01T22:08:55.377Z,47.10
2019-04-01T22:11:25.226Z,47.10
2019-04-01T22:13:55.137Z,47.20
2019-04-01T22:16:25.761Z,47.20
2019-04-01T22:18:55.479Z,47.20
2019-04-01T22:21:25.193Z,47.20
2019-04-01T22:23:54.933Z,47.40
2019-04-01T22:26:24.789Z,47.30
2019-04-01T22:28:54.589Z,47.40
2019-04-01T22:31:24.372Z,47.50
2019-04-01T22:33:54.181Z,47.60
2019-04-01T22:36:31.013Z,47.70
2019-04-01T22:38:55.471Z,47.90
2019-04-01T22:41:25.198Z,47.90
2019-04-01T22:43:54.989Z,48.00
2019-04-01T22:46:25.834Z,47.80
2019-04-01T22:48:55.653Z,47.90
2019-04-01T22:51:25.445Z,47.90
2019-04-01T22:53:55.189Z,47.90
2019-04-01T22:56:24.980Z,48.10
2019-04-01T22:58:54.763Z,48.10
2019-04-01T23:01:27.000Z,48.10
2019-04-01T23:03:56.782Z,48.30
2019-04-01T23:06:26.890Z,48.30
2019-04-01T23:08:56.828Z,48.40
2019-04-01T23:11:26.537Z,48.40
2019-04-01T23:13:56.321Z,48.50
2019-04-01T23:16:26.124Z,48.60
2019-04-01T23:18:55.902Z,48.60
2019-04-01T23:21:25.801Z,48.80
2019-04-01T23:23:55.616Z,48.80
2019-04-01T23:26:26.282Z,48.90
2019-04-01T23:28:57.148Z,49.10
2019-04-01T23:31:27.095Z,49.20
2019-04-01T23:33:56.967Z,49.20
2019-04-01T23:36:26.714Z,49.30
2019-04-01T23:38:56.503Z,49.40
2019-04-01T23:41:26.231Z,49.30
2019-04-01T23:43:55.941Z,50.20
2019-04-01T23:46:25.665Z,49.70
2019-04-01T23:48:55.538Z,49.70
2019-04-01T23:51:25.329Z,49.70
2019-04-01T23:53:55.131Z,49.80
2019-04-01T23:56:24.974Z,49.70
2019-04-01T23:58:54.768Z,49.80
